Impacts TAF Board INFO
FOR SITUATIONAL AWARENESS. NOT TO BE USED FOR FLIGHT PLANNING PURPOSES.
IDs:

KJFK - New York/Kennedy Int, NY, US

Issued at 2340 UTC 24 Nov 2017
Updated at 0014 UTC 25 Nov 2017
Potential Impact None Slight Moderate High
Time2351Z 25/01Z 25/02Z 25/03Z 25/04Z 25/05Z 25/06Z 25/07Z 25/08Z 25/09Z 25/10Z 25/11Z 25/12Z 25/13Z>>
Type OBS PRVL PRVL PRVL PRVL PRVL PRVL PRVL PRVL PRVL PRVL PRVL PRVL PRVL
VIS 10 >6 >6 >6 >6 >6 >6 >6 >6 >6 >6 >6 >6 >6
CIG -- -- -- -- -- -- -- -- -- -- -- -- -- --
Cover CLR FEW FEW FEW FEW FEW FEW FEW FEW FEW FEW FEW FEW FEW
FltCat VFR VFR VFR VFR VFR VFR VFR VFR VFR VFR VFR VFR VFR VFR
WX -- -- -- -- -- -- -- -- -- -- -- -- -- --
WDir 220 220 220 220 220 220 220 220 220 220 220 220 220 220
WSpd 8 8 8 8 8 8 8 8 8 8 8 8 8 8
WGst -- -- -- -- -- -- -- -- -- -- -- -- -- --

Raw TAF
KJFK 242340Z 2500/2606 20012KT P6SM SKC
  FM250100 22008KT P6SM FEW200
  FM252000 25009KT P6SM SCT100 BKN200
  FM252300 28010KT P6SM VCSH BKN070 BKN100
  FM260200 29011G19KT P6SM OVC040


Raw METAR
KJFK 242351Z 22008KT 10SM CLR 07/02 A2999 RMK AO2 SLP155 T00720017 10089 20061 51002
KJFK 242251Z 20012KT 10SM CLR 08/01 A2999 RMK AO2 SLP154 T00780006
KJFK 242151Z 18007KT 10SM FEW250 07/01 A2999 RMK AO2 SLP154 T00670006

METAR Board
Radar Display
Forecast Discussion

FOR SITUATIONAL AWARENESS. NOT TO BE USED FOR FLIGHT PLANNING PURPOSES.